sensor_id;sensor_type;location;lat;lon;timestamp;pressure;altitude;pressure_sealevel;temperature;humidity
9672;BME280;4874;43.568;27.824;2023-02-16T00:00:53;100351.31;;;2.62;100.00
9672;BME280;4874;43.568;27.824;2023-02-16T00:03:20;100347.31;;;2.52;100.00
9672;BME280;4874;43.568;27.824;2023-02-16T00:05:48;100359.03;;;2.43;100.00
9672;BME280;4874;43.568;27.824;2023-02-16T00:08:15;100359.75;;;2.25;100.00
9672;BME280;4874;43.568;27.824;2023-02-16T00:10:41;100351.03;;;2.25;100.00
9672;BME280;4874;43.568;27.824;2023-02-16T00:13:28;100350.34;;;2.20;100.00
9672;BME280;4874;43.568;27.824;2023-02-16T00:16:16;100351.09;;;2.23;100.00
9672;BME280;4874;43.568;27.824;2023-02-16T00:18:43;100343.16;;;2.25;100.00
9672;BME280;4874;43.568;27.824;2023-02-16T00:21:10;100344.75;;;2.29;100.00
9672;BME280;4874;43.568;27.824;2023-02-16T00:23:37;100345.34;;;2.14;100.00
9672;BME280;4874;43.568;27.824;2023-02-16T00:26:04;100342.94;;;2.31;100.00
9672;BME280;4874;43.568;27.824;2023-02-16T00:28:31;100334.97;;;2.11;100.00
9672;BME280;4874;43.568;27.824;2023-02-16T00:30:58;100330.25;;;1.97;100.00
9672;BME280;4874;43.568;27.824;2023-02-16T00:33:24;100332.09;;;1.95;100.00
9672;BME280;4874;43.568;27.824;2023-02-16T00:35:51;100333.13;;;1.91;100.00
9672;BME280;4874;43.568;27.824;2023-02-16T00:38:17;100339.84;;;1.98;100.00
9672;BME280;4874;43.568;27.824;2023-02-16T00:40:44;100334.97;;;2.11;100.00
9672;BME280;4874;43.568;27.824;2023-02-16T00:43:24;100336.88;;;2.07;100.00
9672;BME280;4874;43.568;27.824;2023-02-16T00:45:51;100327.13;;;2.11;100.00
9672;BME280;4874;43.568;27.824;2023-02-16T00:48:18;100330.50;;;1.91;100.00
9672;BME280;4874;43.568;27.824;2023-02-16T00:50:45;100328.59;;;1.72;100.00
9672;BME280;4874;43.568;27.824;2023-02-16T00:53:11;100327.09;;;1.89;100.00
9672;BME280;4874;43.568;27.824;2023-02-16T00:55:38;100326.13;;;1.92;100.00
9672;BME280;4874;43.568;27.824;2023-02-16T00:58:07;100324.53;;;1.88;100.00
9672;BME280;4874;43.568;27.824;2023-02-16T01:00:39;100322.53;;;1.94;100.00
9672;BME280;4874;43.568;27.824;2023-02-16T01:03:10;100326.06;;;1.93;100.00
9672;BME280;4874;43.568;27.824;2023-02-16T01:05:38;100320.25;;;2.08;100.00
9672;BME280;4874;43.568;27.824;2023-02-16T01:08:08;100320.16;;;1.88;100.00
9672;BME280;4874;43.568;27.824;2023-02-16T01:10:53;100308.53;;;1.95;100.00
9672;BME280;4874;43.568;27.824;2023-02-16T01:13:34;100308.28;;;2.01;100.00
9672;BME280;4874;43.568;27.824;2023-02-16T01:16:02;100307.75;;;2.15;100.00
9672;BME280;4874;43.568;27.824;2023-02-16T01:18:29;100306.66;;;1.76;100.00
9672;BME280;4874;43.568;27.824;2023-02-16T01:20:55;100312.06;;;1.94;100.00
9672;BME280;4874;43.568;27.824;2023-02-16T01:23:22;100313.78;;;1.95;100.00
9672;BME280;4874;43.568;27.824;2023-02-16T01:25:48;100309.38;;;1.96;100.00
9672;BME280;4874;43.568;27.824;2023-02-16T01:28:16;100311.63;;;1.83;100.00
9672;BME280;4874;43.568;27.824;2023-02-16T01:30:44;100313.28;;;1.61;100.00
9672;BME280;4874;43.568;27.824;2023-02-16T01:33:10;100307.59;;;1.73;100.00
9672;BME280;4874;43.568;27.824;2023-02-16T01:35:37;100311.34;;;1.68;100.00
9672;BME280;4874;43.568;27.824;2023-02-16T01:38:03;100311.03;;;1.52;100.00
9672;BME280;4874;43.568;27.824;2023-02-16T01:43:01;100310.78;;;1.58;100.00
9672;BME280;4874;43.568;27.824;2023-02-16T01:45:32;100316.84;;;1.60;100.00
9672;BME280;4874;43.568;27.824;2023-02-16T01:48:03;100319.44;;;1.60;100.00
9672;BME280;4874;43.568;27.824;2023-02-16T01:50:40;100316.84;;;1.36;100.00
9672;BME280;4874;43.568;27.824;2023-02-16T01:55:54;100307.38;;;1.56;100.00
9672;BME280;4874;43.568;27.824;2023-02-16T02:01:20;100313.44;;;1.34;100.00
9672;BME280;4874;43.568;27.824;2023-02-16T02:03:53;100309.09;;;1.57;100.00
9672;BME280;4874;43.568;27.824;2023-02-16T02:06:39;100301.38;;;1.54;100.00
9672;BME280;4874;43.568;27.824;2023-02-16T02:09:10;100306.19;;;1.42;100.00
9672;BME280;4874;43.568;27.824;2023-02-16T02:11:45;100300.81;;;1.45;100.00
9672;BME280;4874;43.568;27.824;2023-02-16T02:14:19;100298.34;;;1.42;100.00
9672;BME280;4874;43.568;27.824;2023-02-16T02:16:54;100299.19;;;1.17;100.00
9672;BME280;4874;43.568;27.824;2023-02-16T02:19:22;100300.06;;;1.18;100.00
9672;BME280;4874;43.568;27.824;2023-02-16T02:25:03;100288.22;;;1.56;100.00
9672;BME280;4874;43.568;27.824;2023-02-16T02:27:38;100296.63;;;1.64;100.00
9672;BME280;4874;43.568;27.824;2023-02-16T02:32:49;100294.34;;;1.55;100.00
9672;BME280;4874;43.568;27.824;2023-02-16T02:35:33;100303.75;;;1.60;100.00
9672;BME280;4874;43.568;27.824;2023-02-16T02:38:11;100290.03;;;1.54;100.00
9672;BME280;4874;43.568;27.824;2023-02-16T02:40:58;100296.63;;;1.64;100.00
9672;BME280;4874;43.568;27.824;2023-02-16T02:44:11;100296.06;;;1.79;100.00
9672;BME280;4874;43.568;27.824;2023-02-16T02:46:25;100296.22;;;1.97;100.00
9672;BME280;4874;43.568;27.824;2023-02-16T02:48:53;100308.16;;;2.04;100.00
9672;BME280;4874;43.568;27.824;2023-02-16T02:51:19;100296.53;;;2.34;100.00
9672;BME280;4874;43.568;27.824;2023-02-16T02:59:41;100302.50;;;1.47;100.00
9672;BME280;4874;43.568;27.824;2023-02-16T03:02:28;100305.19;;;1.44;100.00
9672;BME280;4874;43.568;27.824;2023-02-16T03:04:56;100308.69;;;1.45;100.00
9672;BME280;4874;43.568;27.824;2023-02-16T03:07:23;100305.81;;;1.52;100.00
9672;BME280;4874;43.568;27.824;2023-02-16T03:10:10;100301.13;;;1.37;100.00
9672;BME280;4874;43.568;27.824;2023-02-16T03:12:55;100297.34;;;1.44;100.00
9672;BME280;4874;43.568;27.824;2023-02-16T03:15:23;100302.31;;;1.27;100.00
9672;BME280;4874;43.568;27.824;2023-02-16T03:17:50;100297.69;;;1.35;100.00
9672;BME280;4874;43.568;27.824;2023-02-16T03:20:39;100303.97;;;1.54;100.00
9672;BME280;4874;43.568;27.824;2023-02-16T03:23:25;100299.94;;;1.46;100.00
9672;BME280;4874;43.568;27.824;2023-02-16T03:26:11;100303.00;;;1.32;100.00
9672;BME280;4874;43.568;27.824;2023-02-16T03:28:57;100306.53;;;1.08;100.00
9672;BME280;4874;43.568;27.824;2023-02-16T03:31:43;100308.41;;;1.28;100.00
9672;BME280;4874;43.568;27.824;2023-02-16T03:34:11;100307.63;;;1.01;100.00
9672;BME280;4874;43.568;27.824;2023-02-16T03:36:38;100306.53;;;1.08;100.00
9672;BME280;4874;43.568;27.824;2023-02-16T03:39:05;100307.47;;;1.05;100.00
9672;BME280;4874;43.568;27.824;2023-02-16T03:41:34;100310.09;;;1.05;100.00
9672;BME280;4874;43.568;27.824;2023-02-16T03:44:03;100317.69;;;1.11;100.00
9672;BME280;4874;43.568;27.824;2023-02-16T03:46:30;100313.88;;;0.97;100.00
9672;BME280;4874;43.568;27.824;2023-02-16T03:48:56;100315.41;;;1.02;100.00
9672;BME280;4874;43.568;27.824;2023-02-16T03:51:23;100316.22;;;1.04;100.00
9672;BME280;4874;43.568;27.824;2023-02-16T03:53:50;100324.00;;;1.31;100.00
9672;BME280;4874;43.568;27.824;2023-02-16T03:56:16;100325.78;;;1.30;100.00
9672;BME280;4874;43.568;27.824;2023-02-16T03:58:43;100318.25;;;1.21;100.00
9672;BME280;4874;43.568;27.824;2023-02-16T04:01:09;100321.88;;;1.42;100.00
9672;BME280;4874;43.568;27.824;2023-02-16T04:03:36;100325.50;;;1.38;100.00
9672;BME280;4874;43.568;27.824;2023-02-16T04:06:03;100316.22;;;1.04;100.00
9672;BME280;4874;43.568;27.824;2023-02-16T04:08:29;100320.13;;;1.17;100.00
9672;BME280;4874;43.568;27.824;2023-02-16T04:10:56;100320.38;;;1.10;100.00
9672;BME280;4874;43.568;27.824;2023-02-16T04:13:23;100320.13;;;1.17;100.00
9672;BME280;4874;43.568;27.824;2023-02-16T04:15:49;100321.75;;;1.20;100.00
9672;BME280;4874;43.568;27.824;2023-02-16T04:18:16;100314.59;;;1.50;100.00
9672;BME280;4874;43.568;27.824;2023-02-16T04:20:43;100317.81;;;1.08;100.00
9672;BME280;4874;43.568;27.824;2023-02-16T04:23:09;100311.31;;;0.95;100.00
9672;BME280;4874;43.568;27.824;2023-02-16T04:25:36;100313.03;;;1.21;100.00
9672;BME280;4874;43.568;27.824;2023-02-16T04:28:02;100321.03;;;1.16;100.00
9672;BME280;4874;43.568;27.824;2023-02-16T04:30:29;100322.91;;;1.13;100.00
9672;BME280;4874;43.568;27.824;2023-02-16T04:32:57;100311.81;;;1.05;100.00
9672;BME280;4874;43.568;27.824;2023-02-16T04:35:24;100317.00;;;1.06;100.00
9672;BME280;4874;43.568;27.824;2023-02-16T04:37:51;100317.28;;;0.99;100.00
9672;BME280;4874;43.568;27.824;2023-02-16T04:40:18;100325.25;;;0.96;100.00
9672;BME280;4874;43.568;27.824;2023-02-16T04:42:44;100334.94;;;0.92;100.00
9672;BME280;4874;43.568;27.824;2023-02-16T04:45:11;100328.81;;;1.18;100.00
9672;BME280;4874;43.568;27.824;2023-02-16T04:47:38;100333.72;;;1.02;100.00
9672;BME280;4874;43.568;27.824;2023-02-16T04:50:05;100330.94;;;1.07;100.00
9672;BME280;4874;43.568;27.824;2023-02-16T04:52:31;100329.34;;;1.28;100.00
9672;BME280;4874;43.568;27.824;2023-02-16T04:54:59;100336.75;;;0.90;100.00
9672;BME280;4874;43.568;27.824;2023-02-16T04:57:26;100335.16;;;1.11;100.00
9672;BME280;4874;43.568;27.824;2023-02-16T04:59:53;100336.50;;;1.23;100.00
9672;BME280;4874;43.568;27.824;2023-02-16T05:02:19;100337.91;;;1.08;100.00
9672;BME280;4874;43.568;27.824;2023-02-16T05:04:46;100343.06;;;0.83;100.00
9672;BME280;4874;43.568;27.824;2023-02-16T05:07:12;100341.56;;;0.76;100.00
9672;BME280;4874;43.568;27.824;2023-02-16T05:09:39;100336.88;;;0.86;100.00
9672;BME280;4874;43.568;27.824;2023-02-16T05:12:06;100333.72;;;0.76;100.00
9672;BME280;4874;43.568;27.824;2023-02-16T05:14:50;100343.88;;;0.59;100.00
9672;BME280;4874;43.568;27.824;2023-02-16T05:17:18;100338.47;;;0.64;100.00
9672;BME280;4874;43.568;27.824;2023-02-16T05:19:47;100340.63;;;0.79;100.00
9672;BME280;4874;43.568;27.824;2023-02-16T05:22:14;100348.47;;;0.79;100.00
9672;BME280;4874;43.568;27.824;2023-02-16T05:24:41;100344.59;;;0.90;100.00
9672;BME280;4874;43.568;27.824;2023-02-16T05:27:10;100346.13;;;1.47;100.00
9672;BME280;4874;43.568;27.824;2023-02-16T05:29:37;100346.72;;;2.24;100.00
9672;BME280;4874;43.568;27.824;2023-02-16T05:32:04;100343.56;;;2.59;100.00
9672;BME280;4874;43.568;27.824;2023-02-16T05:34:30;100346.28;;;2.78;100.00
9672;BME280;4874;43.568;27.824;2023-02-16T05:36:57;100348.81;;;2.81;100.00
9672;BME280;4874;43.568;27.824;2023-02-16T05:39:23;100345.31;;;2.80;100.00
9672;BME280;4874;43.568;27.824;2023-02-16T05:41:50;100349.53;;;2.63;100.00
9672;BME280;4874;43.568;27.824;2023-02-16T05:44:17;100339.13;;;3.03;100.00
9672;BME280;4874;43.568;27.824;2023-02-16T05:46:43;100348.47;;;3.30;100.00
9672;BME280;4874;43.568;27.824;2023-02-16T05:49:12;100343.00;;;3.54;100.00
9672;BME280;4874;43.568;27.824;2023-02-16T05:51:39;100345.88;;;3.48;100.00
9672;BME280;4874;43.568;27.824;2023-02-16T05:54:05;100345.97;;;3.47;100.00
9672;BME280;4874;43.568;27.824;2023-02-16T05:56:32;100352.88;;;4.07;100.00
9672;BME280;4874;43.568;27.824;2023-02-16T05:58:59;100351.38;;;4.01;100.00
9672;BME280;4874;43.568;27.824;2023-02-16T06:01:26;100355.09;;;3.77;100.00
9672;BME280;4874;43.568;27.824;2023-02-16T06:03:53;100351.78;;;3.74;100.00
9672;BME280;4874;43.568;27.824;2023-02-16T06:06:20;100351.25;;;4.04;100.00
9672;BME280;4874;43.568;27.824;2023-02-16T06:08:47;100346.72;;;4.08;100.00
9672;BME280;4874;43.568;27.824;2023-02-16T06:11:14;100354.16;;;4.35;100.00
9672;BME280;4874;43.568;27.824;2023-02-16T06:13:59;100352.59;;;4.50;100.00
9672;BME280;4874;43.568;27.824;2023-02-16T06:16:27;100354.25;;;4.88;100.00
9672;BME280;4874;43.568;27.824;2023-02-16T06:18:54;100355.19;;;5.38;100.00
9672;BME280;4874;43.568;27.824;2023-02-16T06:21:21;100344.66;;;5.72;100.00
9672;BME280;4874;43.568;27.824;2023-02-16T06:23:48;100345.50;;;5.05;100.00
9672;BME280;4874;43.568;27.824;2023-02-16T06:26:15;100348.59;;;5.30;100.00
9672;BME280;4874;43.568;27.824;2023-02-16T06:28:42;100351.22;;;5.64;100.00
9672;BME280;4874;43.568;27.824;2023-02-16T06:31:09;100346.38;;;6.06;100.00
9672;BME280;4874;43.568;27.824;2023-02-16T06:33:36;100350.28;;;6.15;100.00
9672;BME280;4874;43.568;27.824;2023-02-16T06:36:03;100352.09;;;6.45;100.00
9672;BME280;4874;43.568;27.824;2023-02-16T06:38:30;100354.47;;;6.50;100.00
9672;BME280;4874;43.568;27.824;2023-02-16T06:40:56;100342.41;;;6.61;100.00
9672;BME280;4874;43.568;27.824;2023-02-16T06:43:23;100352.19;;;6.59;100.00
9672;BME280;4874;43.568;27.824;2023-02-16T06:45:49;100357.19;;;6.64;100.00
9672;BME280;4874;43.568;27.824;2023-02-16T06:48:16;100342.97;;;6.82;100.00
9672;BME280;4874;43.568;27.824;2023-02-16T06:50:42;100346.03;;;6.90;100.00
9672;BME280;4874;43.568;27.824;2023-02-16T06:53:09;100351.50;;;6.71;100.00
9672;BME280;4874;43.568;27.824;2023-02-16T06:55:36;100346.53;;;6.81;100.00
9672;BME280;4874;43.568;27.824;2023-02-16T06:58:03;100345.63;;;6.51;100.00
9672;BME280;4874;43.568;27.824;2023-02-16T07:00:30;100350.38;;;6.75;100.00
9672;BME280;4874;43.568;27.824;2023-02-16T07:02:56;100352.38;;;6.56;100.00
9672;BME280;4874;43.568;27.824;2023-02-16T07:05:23;100346.50;;;6.51;100.00
9672;BME280;4874;43.568;27.824;2023-02-16T07:07:50;100349.44;;;6.30;100.00
9672;BME280;4874;43.568;27.824;2023-02-16T07:10:17;100344.00;;;6.48;100.00
9672;BME280;4874;43.568;27.824;2023-02-16T07:12:45;100347.91;;;6.10;100.00
9672;BME280;4874;43.568;27.824;2023-02-16T07:15:12;100344.16;;;6.14;100.00
9672;BME280;4874;43.568;27.824;2023-02-16T07:17:38;100370.59;;;6.13;100.00
9672;BME280;4874;43.568;27.824;2023-02-16T07:20:05;100348.44;;;6.32;100.00
9672;BME280;4874;43.568;27.824;2023-02-16T07:22:32;100340.16;;;6.07;100.00
9672;BME280;4874;43.568;27.824;2023-02-16T07:24:59;100338.22;;;6.26;100.00
9672;BME280;4874;43.568;27.824;2023-02-16T07:27:26;100335.34;;;5.82;100.00
9672;BME280;4874;43.568;27.824;2023-02-16T07:29:53;100332.28;;;5.90;100.00
9672;BME280;4874;43.568;27.824;2023-02-16T07:32:19;100338.03;;;5.98;100.00
9672;BME280;4874;43.568;27.824;2023-02-16T07:34:46;100328.53;;;6.42;100.00
9672;BME280;4874;43.568;27.824;2023-02-16T07:37:12;100329.31;;;6.44;100.00
9672;BME280;4874;43.568;27.824;2023-02-16T07:39:39;100330.81;;;6.64;100.00
9672;BME280;4874;43.568;27.824;2023-02-16T07:42:06;100330.41;;;6.40;100.00
9672;BME280;4874;43.568;27.824;2023-02-16T07:44:32;100329.72;;;6.52;100.00
9672;BME280;4874;43.568;27.824;2023-02-16T07:46:59;100336.44;;;6.42;100.00
9672;BME280;4874;43.568;27.824;2023-02-16T07:49:25;100330.50;;;6.39;100.00
9672;BME280;4874;43.568;27.824;2023-02-16T07:51:52;100328.00;;;6.67;100.00
9672;BME280;4874;43.568;27.824;2023-02-16T07:54:18;100321.28;;;7.06;100.00
9672;BME280;4874;43.568;27.824;2023-02-16T07:56:45;100322.41;;;7.02;100.00
9672;BME280;4874;43.568;27.824;2023-02-16T07:59:14;100321.50;;;7.47;98.91
9672;BME280;4874;43.568;27.824;2023-02-16T08:01:40;100321.50;;;7.61;95.35
9672;BME280;4874;43.568;27.824;2023-02-16T08:04:07;100325.75;;;7.64;92.26
9672;BME280;4874;43.568;27.824;2023-02-16T08:06:34;100322.94;;;8.09;90.00
9672;BME280;4874;43.568;27.824;2023-02-16T08:09:01;100318.00;;;7.75;88.51
9672;BME280;4874;43.568;27.824;2023-02-16T08:11:28;100319.66;;;8.05;84.86
9672;BME280;4874;43.568;27.824;2023-02-16T08:13:54;100323.34;;;8.31;86.40
9672;BME280;4874;43.568;27.824;2023-02-16T08:16:22;100321.34;;;8.35;83.29
9672;BME280;4874;43.568;27.824;2023-02-16T08:18:49;100322.34;;;8.04;82.73
9672;BME280;4874;43.568;27.824;2023-02-16T08:21:17;100322.28;;;7.77;83.93
9672;BME280;4874;43.568;27.824;2023-02-16T08:23:45;100318.88;;;8.31;83.75
9672;BME280;4874;43.568;27.824;2023-02-16T08:26:15;100318.06;;;8.58;82.00
9672;BME280;4874;43.568;27.824;2023-02-16T08:28:45;100315.47;;;8.15;83.35
9672;BME280;4874;43.568;27.824;2023-02-16T08:31:13;100322.03;;;8.51;81.98
9672;BME280;4874;43.568;27.824;2023-02-16T08:33:40;100320.03;;;8.27;82.70
9672;BME280;4874;43.568;27.824;2023-02-16T08:36:18;100319.09;;;8.00;82.65
9672;BME280;4874;43.568;27.824;2023-02-16T08:38:46;100320.28;;;8.37;83.42
9672;BME280;4874;43.568;27.824;2023-02-16T08:41:16;100323.03;;;7.79;82.40
9672;BME280;4874;43.568;27.824;2023-02-16T08:43:42;100318.41;;;7.83;84.34
9672;BME280;4874;43.568;27.824;2023-02-16T08:46:09;100315.41;;;8.31;83.15
9672;BME280;4874;43.568;27.824;2023-02-16T08:48:36;100314.28;;;8.62;83.38
9672;BME280;4874;43.568;27.824;2023-02-16T08:51:03;100315.31;;;8.59;83.31
9672;BME280;4874;43.568;27.824;2023-02-16T08:53:33;100311.72;;;8.87;81.76
9672;BME280;4874;43.568;27.824;2023-02-16T08:56:00;100312.28;;;8.65;78.76
9672;BME280;4874;43.568;27.824;2023-02-16T08:58:29;100326.78;;;8.46;78.60
9672;BME280;4874;43.568;27.824;2023-02-16T09:00:56;100324.06;;;8.74;74.19
9672;BME280;4874;43.568;27.824;2023-02-16T09:03:23;100315.63;;;8.55;66.66
9672;BME280;4874;43.568;27.824;2023-02-16T09:05:50;100313.53;;;8.60;68.54
9672;BME280;4874;43.568;27.824;2023-02-16T09:08:18;100322.19;;;8.76;62.46
9672;BME280;4874;43.568;27.824;2023-02-16T09:10:44;100313.78;;;8.96;59.62
9672;BME280;4874;43.568;27.824;2023-02-16T09:13:11;100320.91;;;9.20;58.80
9672;BME280;4874;43.568;27.824;2023-02-16T09:15:42;100319.66;;;9.26;60.66
9672;BME280;4874;43.568;27.824;2023-02-16T09:18:12;100309.19;;;9.37;59.28
9672;BME280;4874;43.568;27.824;2023-02-16T09:20:40;100312.16;;;9.70;59.32
9672;BME280;4874;43.568;27.824;2023-02-16T09:23:08;100310.06;;;9.63;57.98
9672;BME280;4874;43.568;27.824;2023-02-16T09:25:36;100311.66;;;9.52;53.36
9672;BME280;4874;43.568;27.824;2023-02-16T09:28:04;100309.75;;;9.92;47.13
9672;BME280;4874;43.568;27.824;2023-02-16T09:30:31;100311.88;;;9.75;46.05
9672;BME280;4874;43.568;27.824;2023-02-16T09:33:00;100311.22;;;9.96;47.57
9672;BME280;4874;43.568;27.824;2023-02-16T09:35:27;100311.44;;;10.06;43.78
9672;BME280;4874;43.568;27.824;2023-02-16T09:37:54;100299.81;;;10.32;44.74
9672;BME280;4874;43.568;27.824;2023-02-16T09:40:20;100298.91;;;10.20;42.13
9672;BME280;4874;43.568;27.824;2023-02-16T09:45:22;100290.53;;;10.50;44.79
9672;BME280;4874;43.568;27.824;2023-02-16T09:47:51;100294.41;;;10.93;45.20
9672;BME280;4874;43.568;27.824;2023-02-16T09:53:14;100290.44;;;10.51;31.06
9672;BME280;4874;43.568;27.824;2023-02-16T09:55:46;100287.88;;;10.97;33.64
9672;BME280;4874;43.568;27.824;2023-02-16T09:58:21;100278.72;;;11.36;40.31
9672;BME280;4874;43.568;27.824;2023-02-16T10:11:15;100264.19;;;11.86;35.34
9672;BME280;4874;43.568;27.824;2023-02-16T10:14:21;100258.25;;;11.93;36.64
9672;BME280;4874;43.568;27.824;2023-02-16T10:19:30;100258.47;;;12.12;40.23
9672;BME280;4874;43.568;27.824;2023-02-16T10:21:59;100252.28;;;12.23;40.77
9672;BME280;4874;43.568;27.824;2023-02-16T10:24:28;100242.19;;;12.59;41.64
9672;BME280;4874;43.568;27.824;2023-02-16T10:27:01;100254.50;;;13.03;42.34
9672;BME280;4874;43.568;27.824;2023-02-16T10:29:29;100239.00;;;12.65;44.09
9672;BME280;4874;43.568;27.824;2023-02-16T10:45:51;100225.66;;;12.97;46.39
9672;BME280;4874;43.568;27.824;2023-02-16T10:48:21;100224.72;;;13.39;45.35
9672;BME280;4874;43.568;27.824;2023-02-16T10:53:18;100219.00;;;12.71;44.44
9672;BME280;4874;43.568;27.824;2023-02-16T10:55:46;100214.59;;;13.13;44.35
9672;BME280;4874;43.568;27.824;2023-02-16T10:58:18;100208.44;;;13.22;44.17
9672;BME280;4874;43.568;27.824;2023-02-16T11:01:34;100209.59;;;13.49;43.13
9672;BME280;4874;43.568;27.824;2023-02-16T11:03:35;100203.72;;;13.05;43.27
9672;BME280;4874;43.568;27.824;2023-02-16T11:06:20;100214.47;;;13.14;42.07
9672;BME280;4874;43.568;27.824;2023-02-16T11:08:49;100205.41;;;13.26;41.73
9672;BME280;4874;43.568;27.824;2023-02-16T11:11:16;100197.75;;;12.80;41.71
9672;BME280;4874;43.568;27.824;2023-02-16T11:13:47;100188.81;;;12.70;41.81
9672;BME280;4874;43.568;27.824;2023-02-16T11:16:18;100193.94;;;12.94;42.97
9672;BME280;4874;43.568;27.824;2023-02-16T11:18:47;100190.91;;;13.19;41.96
9672;BME280;4874;43.568;27.824;2023-02-16T11:21:21;100186.88;;;13.04;41.78
9672;BME280;4874;43.568;27.824;2023-02-16T11:24:08;100179.06;;;13.63;41.31
9672;BME280;4874;43.568;27.824;2023-02-16T11:26:36;100179.47;;;13.08;41.64
9672;BME280;4874;43.568;27.824;2023-02-16T11:29:15;100172.72;;;13.34;41.49
9672;BME280;4874;43.568;27.824;2023-02-16T11:31:43;100177.81;;;13.37;41.59
9672;BME280;4874;43.568;27.824;2023-02-16T11:37:03;100158.53;;;13.93;40.94
9672;BME280;4874;43.568;27.824;2023-02-16T11:39:35;100163.22;;;13.71;40.71
9672;BME280;4874;43.568;27.824;2023-02-16T11:42:04;100157.34;;;13.77;40.52
9672;BME280;4874;43.568;27.824;2023-02-16T11:44:39;100155.50;;;14.17;40.15
9672;BME280;4874;43.568;27.824;2023-02-16T11:47:55;100148.03;;;14.21;39.25
9672;BME280;4874;43.568;27.824;2023-02-16T11:50:08;100143.44;;;14.80;38.82
9672;BME280;4874;43.568;27.824;2023-02-16T11:52:35;100147.66;;;14.44;38.61
9672;BME280;4874;43.568;27.824;2023-02-16T11:55:02;100147.38;;;14.66;39.19
9672;BME280;4874;43.568;27.824;2023-02-16T11:57:31;100147.50;;;15.03;39.08
9672;BME280;4874;43.568;27.824;2023-02-16T11:59:59;100132.34;;;14.56;39.38
9672;BME280;4874;43.568;27.824;2023-02-16T12:05:11;100138.53;;;14.75;38.09
9672;BME280;4874;43.568;27.824;2023-02-16T12:07:44;100133.72;;;14.69;38.56
9672;BME280;4874;43.568;27.824;2023-02-16T12:15:26;100124.44;;;14.64;38.09
9672;BME280;4874;43.568;27.824;2023-02-16T12:20:44;100121.94;;;14.43;38.45
9672;BME280;4874;43.568;27.824;2023-02-16T12:25:50;100109.69;;;14.41;37.91
9672;BME280;4874;43.568;27.824;2023-02-16T12:28:26;100111.34;;;14.80;38.57
9672;BME280;4874;43.568;27.824;2023-02-16T12:43:51;100103.19;;;14.91;37.90
9672;BME280;4874;43.568;27.824;2023-02-16T12:49:04;100098.03;;;14.70;37.43
9672;BME280;4874;43.568;27.824;2023-02-16T12:51:40;100099.41;;;14.84;37.18
9672;BME280;4874;43.568;27.824;2023-02-16T12:54:12;100091.53;;;14.35;37.98
9672;BME280;4874;43.568;27.824;2023-02-16T12:56:47;100089.03;;;14.62;38.40
9672;BME280;4874;43.568;27.824;2023-02-16T13:01:44;100096.00;;;14.05;38.38
9672;BME280;4874;43.568;27.824;2023-02-16T13:12:54;100084.47;;;14.81;38.53
9672;BME280;4874;43.568;27.824;2023-02-16T13:18:03;100079.69;;;13.99;39.13
9672;BME280;4874;43.568;27.824;2023-02-16T13:20:30;100074.94;;;14.50;38.46
9672;BME280;4874;43.568;27.824;2023-02-16T13:30:57;100082.97;;;14.50;39.67
9672;BME280;4874;43.568;27.824;2023-02-16T13:36:12;100072.50;;;13.80;40.24
9672;BME280;4874;43.568;27.824;2023-02-16T13:46:56;100073.13;;;14.22;40.18
9672;BME280;4874;43.568;27.824;2023-02-16T13:51:58;100073.84;;;14.34;39.76
9672;BME280;4874;43.568;27.824;2023-02-16T13:54:27;100072.16;;;14.33;40.85
9672;BME280;4874;43.568;27.824;2023-02-16T13:56:54;100064.16;;;14.33;40.49
9672;BME280;4874;43.568;27.824;2023-02-16T14:01:49;100065.69;;;14.26;40.51
9672;BME280;4874;43.568;27.824;2023-02-16T14:07:35;100055.44;;;13.43;41.76
9672;BME280;4874;43.568;27.824;2023-02-16T14:22:20;100033.81;;;13.56;42.21
9672;BME280;4874;43.568;27.824;2023-02-16T14:24:55;100049.72;;;13.18;43.03
9672;BME280;4874;43.568;27.824;2023-02-16T14:27:42;100036.03;;;12.81;42.91
9672;BME280;4874;43.568;27.824;2023-02-16T14:30:23;100035.25;;;12.90;42.62
9672;BME280;4874;43.568;27.824;2023-02-16T14:33:02;100030.09;;;12.98;42.88
9672;BME280;4874;43.568;27.824;2023-02-16T14:35:32;100032.44;;;12.91;43.76
9672;BME280;4874;43.568;27.824;2023-02-16T14:38:20;100032.06;;;12.75;44.14
9672;BME280;4874;43.568;27.824;2023-02-16T14:40:52;100028.47;;;12.76;44.67
9672;BME280;4874;43.568;27.824;2023-02-16T14:43:31;100031.91;;;12.97;44.69
9672;BME280;4874;43.568;27.824;2023-02-16T14:46:16;100033.00;;;12.85;44.64
9672;BME280;4874;43.568;27.824;2023-02-16T14:56:44;100023.53;;;12.51;45.75
9672;BME280;4874;43.568;27.824;2023-02-16T15:01:47;100031.59;;;12.40;45.84
9672;BME280;4874;43.568;27.824;2023-02-16T15:04:25;100025.16;;;12.43;46.00
9672;BME280;4874;43.568;27.824;2023-02-16T15:06:53;100030.06;;;11.74;48.56
9672;BME280;4874;43.568;27.824;2023-02-16T15:09:30;100031.34;;;10.60;56.52
9672;BME280;4874;43.568;27.824;2023-02-16T15:12:05;100027.84;;;10.71;60.32
9672;BME280;4874;43.568;27.824;2023-02-16T15:14:52;100034.34;;;9.86;71.65
9672;BME280;4874;43.568;27.824;2023-02-16T15:17:28;100037.09;;;9.85;75.47
9672;BME280;4874;43.568;27.824;2023-02-16T15:19:56;100047.88;;;9.71;78.91
9672;BME280;4874;43.568;27.824;2023-02-16T15:22:24;100038.16;;;9.82;79.32
9672;BME280;4874;43.568;27.824;2023-02-16T15:25:35;100038.16;;;9.35;83.11
9672;BME280;4874;43.568;27.824;2023-02-16T15:27:50;100036.38;;;9.83;80.51
9672;BME280;4874;43.568;27.824;2023-02-16T15:30:23;100038.47;;;8.94;85.63
9672;BME280;4874;43.568;27.824;2023-02-16T15:32:54;100041.44;;;9.38;84.10
9672;BME280;4874;43.568;27.824;2023-02-16T15:35:28;100034.09;;;9.42;82.90
9672;BME280;4874;43.568;27.824;2023-02-16T15:38:03;100029.75;;;9.05;83.49
9672;BME280;4874;43.568;27.824;2023-02-16T15:40:30;100028.91;;;9.04;84.51
9672;BME280;4874;43.568;27.824;2023-02-16T15:43:00;100028.00;;;8.55;90.00
9672;BME280;4874;43.568;27.824;2023-02-16T15:45:33;100029.22;;;8.24;90.72
9672;BME280;4874;43.568;27.824;2023-02-16T15:48:12;100023.94;;;8.62;90.95